createdAt,value
2019-01-03T00:00:46.416Z,18.8
2019-01-03T00:01:36.463Z,18.9
2019-01-03T00:02:25.466Z,18.9
2019-01-03T00:03:16.308Z,18.9
2019-01-03T00:04:05.838Z,18.9
2019-01-03T00:04:56.216Z,18.9
2019-01-03T00:05:46.746Z,18.8
2019-01-03T00:06:36.283Z,18.8
2019-01-03T00:07:26.599Z,18.8
2019-01-03T00:08:16.378Z,18.8
2019-01-03T00:09:06.220Z,18.8
2019-01-03T00:09:56.508Z,18.8
2019-01-03T00:10:46.590Z,18.8
2019-01-03T00:11:36.343Z,18.8
2019-01-03T00:12:26.985Z,18.8
2019-01-03T00:13:16.468Z,18.8
2019-01-03T00:14:07.289Z,18.8
2019-01-03T00:14:56.858Z,18.8
2019-01-03T00:33:13.051Z,18.8
2019-01-03T00:34:02.635Z,18.8
2019-01-03T00:34:53.730Z,18.8
2019-01-03T00:35:42.924Z,18.8
2019-01-03T00:37:22.851Z,18.8
2019-01-03T00:39:02.436Z,18.8
2019-01-03T00:39:53.804Z,18.8
2019-01-03T00:41:33.621Z,18.8
2019-01-03T00:42:23.211Z,18.8
2019-01-03T00:43:13.803Z,18.8
2019-01-03T00:49:03.402Z,18.8
2019-01-03T00:59:04.339Z,18.6
2019-01-03T01:09:54.574Z,18.6
2019-01-03T01:10:44.605Z,18.6
2019-01-03T01:12:26.333Z,18.6
2019-01-03T01:14:55.204Z,18.6
2019-01-03T01:16:36.286Z,18.6
2019-01-03T01:17:25.876Z,18.6
2019-01-03T01:19:56.041Z,18.6
2019-01-03T01:20:45.808Z,18.6
2019-01-03T01:21:35.331Z,18.6
2019-01-03T01:22:26.179Z,18.6
2019-01-03T01:23:16.284Z,18.6
2019-01-03T01:24:05.491Z,18.6
2019-01-03T01:25:46.430Z,18.6
2019-01-03T01:26:36.517Z,18.6
2019-01-03T01:27:27.528Z,18.6
2019-01-03T01:28:16.055Z,18.6
2019-01-03T01:29:06.371Z,18.6
2019-01-03T01:29:57.010Z,18.6
2019-01-03T01:30:47.300Z,18.6
2019-01-03T01:31:37.358Z,18.6
2019-01-03T01:32:26.925Z,18.6
2019-01-03T01:33:16.398Z,18.6
2019-01-03T01:34:07.278Z,18.6
2019-01-03T01:34:57.080Z,18.6
2019-01-03T01:35:47.447Z,18.6
2019-01-03T01:36:37.185Z,18.6
2019-01-03T01:37:27.565Z,18.6
2019-01-03T01:38:16.444Z,18.6
2019-01-03T01:39:07.107Z,18.6
2019-01-03T01:39:57.344Z,18.6
2019-01-03T01:40:46.900Z,18.6
2019-01-03T01:41:37.827Z,18.6
2019-01-03T01:42:27.573Z,18.6
2019-01-03T01:43:17.634Z,18.6
2019-01-03T01:44:57.506Z,18.6
2019-01-03T01:45:47.524Z,18.6
2019-01-03T01:46:38.208Z,18.6
2019-01-03T01:47:27.665Z,18.6
2019-01-03T01:48:17.161Z,18.6
2019-01-03T01:49:07.211Z,18.6
2019-01-03T01:49:57.849Z,18.6
2019-01-03T01:50:47.594Z,18.6
2019-01-03T01:51:37.316Z,18.6
2019-01-03T01:52:28.279Z,18.6
2019-01-03T01:53:17.566Z,18.6
2019-01-03T01:54:07.847Z,18.6
2019-01-03T01:54:58.211Z,18.6
2019-01-03T01:55:48.978Z,18.6
2019-01-03T01:56:37.986Z,18.6
2019-01-03T01:57:28.066Z,18.6
2019-01-03T01:58:18.143Z,18.6
2019-01-03T01:59:08.251Z,18.6
2019-01-03T01:59:58.592Z,18.6
2019-01-03T02:00:49.031Z,18.6
2019-01-03T02:01:38.878Z,18.6
2019-01-03T02:02:28.953Z,18.6
2019-01-03T02:03:19.270Z,18.6
2019-01-03T02:04:09.056Z,18.6
2019-01-03T02:04:59.437Z,18.6
2019-01-03T02:05:48.906Z,18.6
2019-01-03T02:06:38.128Z,18.6
2019-01-03T02:07:28.998Z,18.6
2019-01-03T02:09:58.738Z,18.8
2019-01-03T02:10:49.532Z,18.8
2019-01-03T02:11:39.100Z,18.9
2019-01-03T02:12:29.632Z,19
2019-01-03T02:13:18.658Z,19.1
2019-01-03T02:14:09.504Z,19.3
2019-01-03T02:14:58.475Z,19.4
2019-01-03T02:15:48.877Z,19.6
2019-01-03T02:16:39.147Z,19.8
2019-01-03T02:17:29.439Z,20.1
2019-01-03T02:18:19.032Z,20.3
2019-01-03T02:19:09.897Z,20.5
2019-01-03T02:20:00.196Z,20.8
2019-01-03T02:20:49.773Z,21
2019-01-03T02:21:39.524Z,21.3
2019-01-03T02:22:29.325Z,21.4
2019-01-03T02:23:19.617Z,21.7
2019-01-03T02:24:11.021Z,21.9
2019-01-03T02:25:00.480Z,22.2
2019-01-03T02:25:50.043Z,22.4
2019-01-03T02:26:39.580Z,22.6
2019-01-03T02:27:29.901Z,22.9
2019-01-03T02:28:21.009Z,23.1
2019-01-03T02:29:10.797Z,23.3
2019-01-03T02:30:00.850Z,23.6
2019-01-03T02:30:50.744Z,23.8
2019-01-03T02:31:40.692Z,24.1
2019-01-03T02:32:30.551Z,24.3
2019-01-03T02:33:21.602Z,24.6
2019-01-03T02:34:10.816Z,24.8
2019-01-03T02:35:01.902Z,25
2019-01-03T02:35:50.891Z,25.3
2019-01-03T02:36:41.534Z,25.4
2019-01-03T02:37:31.294Z,25.6
2019-01-03T02:38:20.793Z,25.8
2019-01-03T02:39:10.907Z,26.1
2019-01-03T02:40:01.952Z,26.3
2019-01-03T02:40:51.581Z,26.4
2019-01-03T02:41:40.838Z,26.5
2019-01-03T02:42:31.391Z,26.7
2019-01-03T02:43:21.736Z,26.8
2019-01-03T02:44:12.055Z,26.9
2019-01-03T02:45:01.835Z,27.1
2019-01-03T02:45:52.199Z,27.2
2019-01-03T02:46:40.863Z,27.3
2019-01-03T02:47:32.295Z,27.4
2019-01-03T02:48:22.062Z,27.5
2019-01-03T02:49:12.410Z,27.6
2019-01-03T02:50:02.170Z,27.8
2019-01-03T02:51:42.256Z,27.9
2019-01-03T02:52:33.158Z,28
2019-01-03T02:53:22.453Z,28.1
2019-01-03T02:54:12.542Z,28.1
2019-01-03T02:55:03.330Z,28.3
2019-01-03T02:55:52.352Z,28.3
2019-01-03T02:56:42.429Z,28.4
2019-01-03T02:57:32.204Z,28.4
2019-01-03T02:58:23.904Z,28.6
2019-01-03T02:59:12.025Z,28.7
2019-01-03T03:00:03.076Z,28.7
2019-01-03T03:00:52.432Z,28.8
2019-01-03T03:01:43.095Z,28.9
2019-01-03T03:02:32.812Z,28.9
2019-01-03T03:03:23.356Z,29.1
2019-01-03T03:04:12.947Z,29.1
2019-01-03T03:05:03.544Z,29.2
2019-01-03T03:05:53.497Z,29.3
2019-01-03T03:06:43.345Z,29.4
2019-01-03T03:07:33.056Z,29.4
2019-01-03T03:08:23.684Z,29.5
2019-01-03T03:09:13.222Z,29.6
2019-01-03T03:10:03.919Z,29.6
2019-01-03T03:10:54.114Z,29.8
2019-01-03T03:11:43.974Z,29.8
2019-01-03T03:12:33.439Z,29.9
2019-01-03T03:13:23.769Z,29.9
2019-01-03T03:14:13.521Z,30.1
2019-01-03T03:15:04.243Z,30.1
2019-01-03T03:15:55.071Z,30.2
2019-01-03T03:16:44.580Z,30.3
2019-01-03T03:17:32.926Z,30.4
2019-01-03T03:18:24.719Z,30.4
2019-01-03T03:19:14.419Z,30.5
2019-01-03T03:20:04.754Z,30.6
2019-01-03T03:20:53.811Z,30.7
2019-01-03T03:21:44.724Z,30.8
2019-01-03T03:22:34.435Z,30.9
2019-01-03T03:23:25.006Z,30.9
2019-01-03T03:24:15.081Z,31.1
2019-01-03T03:25:05.438Z,31.1
2019-01-03T03:25:54.316Z,31.2
2019-01-03T03:26:45.201Z,31.3
2019-01-03T03:27:35.543Z,31.4
2019-01-03T03:28:24.582Z,31.5
2019-01-03T03:29:15.182Z,31.6
2019-01-03T03:30:04.999Z,31.6
2019-01-03T03:30:55.101Z,31.7
2019-01-03T03:31:46.242Z,31.8
2019-01-03T03:32:34.919Z,31.8
2019-01-03T03:33:25.487Z,31.9
2019-01-03T03:34:15.182Z,31.9
2019-01-03T03:35:04.997Z,31.9
2019-01-03T03:35:55.589Z,32
2019-01-03T03:36:46.460Z,32
2019-01-03T03:37:36.288Z,32.1
2019-01-03T03:38:25.202Z,32.1
2019-01-03T03:39:16.362Z,32.1
2019-01-03T03:40:05.308Z,32.1
2019-01-03T03:40:56.513Z,32.2
2019-01-03T03:41:46.528Z,32.2
2019-01-03T03:42:36.343Z,32.3
2019-01-03T03:43:25.582Z,32.3
2019-01-03T03:44:15.901Z,32.3
2019-01-03T03:45:06.227Z,32.3
2019-01-03T03:45:56.537Z,32.3
2019-01-03T03:46:46.579Z,32.4
2019-01-03T03:47:36.715Z,32.4
2019-01-03T03:48:26.737Z,32.4
2019-01-03T03:49:15.477Z,32.4
2019-01-03T03:50:07.202Z,32.4
2019-01-03T03:50:55.874Z,32.5
2019-01-03T03:51:46.686Z,32.5
2019-01-03T03:52:36.571Z,32.6
2019-01-03T03:53:26.800Z,32.6
2019-01-03T03:54:16.371Z,32.6
2019-01-03T03:55:06.751Z,32.6
2019-01-03T03:55:56.705Z,32.6
2019-01-03T03:56:46.691Z,32.6
2019-01-03T03:57:35.997Z,32.6
2019-01-03T03:58:26.606Z,32.6
2019-01-03T03:59:16.911Z,32.6
2019-01-03T04:00:06.501Z,32.7
2019-01-03T04:00:57.132Z,32.7
2019-01-03T04:01:46.592Z,32.7
2019-01-03T04:02:36.936Z,32.7
2019-01-03T04:03:26.970Z,32.8
2019-01-03T04:04:16.792Z,32.8
2019-01-03T04:05:07.667Z,32.8
2019-01-03T04:05:56.611Z,32.8
2019-01-03T04:06:48.048Z,32.8
2019-01-03T04:07:36.777Z,32.8
2019-01-03T04:08:27.843Z,32.8
2019-01-03T04:09:17.696Z,32.8
2019-01-03T04:10:07.697Z,32.8
2019-01-03T04:10:58.250Z,32.8
2019-01-03T04:11:48.039Z,32.8
2019-01-03T04:12:37.327Z,32.9
2019-01-03T04:13:28.408Z,32.9
2019-01-03T04:14:18.035Z,32.9
2019-01-03T04:15:07.862Z,32.9
2019-01-03T04:15:57.592Z,32.9
2019-01-03T04:16:48.169Z,32.9
2019-01-03T04:17:38.457Z,32.9
2019-01-03T04:18:28.670Z,32.9
2019-01-03T04:19:18.097Z,32.9
2019-01-03T04:20:07.848Z,32.9
2019-01-03T04:20:59.042Z,32.9
2019-01-03T04:21:48.680Z,32.9
2019-01-03T04:22:38.765Z,32.9
2019-01-03T04:23:29.395Z,32.9
2019-01-03T04:24:18.888Z,32.9
2019-01-03T04:25:24.247Z,32.9
2019-01-03T04:25:59.032Z,32.9
2019-01-03T04:26:49.424Z,32.9
2019-01-03T04:27:39.106Z,32.9
2019-01-03T04:28:29.474Z,32.9
2019-01-03T04:29:19.505Z,33
2019-01-03T04:30:08.545Z,32.9
2019-01-03T04:30:59.408Z,32.9
2019-01-03T04:31:50.242Z,33
2019-01-03T04:32:39.191Z,33
2019-01-03T04:33:28.996Z,33
2019-01-03T04:34:19.599Z,33
2019-01-03T04:35:10.006Z,33.1
2019-01-03T04:36:00.028Z,33
2019-01-03T04:36:50.365Z,33.1
2019-01-03T04:37:40.211Z,33
2019-01-03T04:38:29.897Z,33
2019-01-03T04:39:19.419Z,33
2019-01-03T04:40:09.397Z,33
2019-01-03T04:40:59.758Z,33.1
2019-01-03T04:41:50.471Z,33
2019-01-03T04:42:39.128Z,33
2019-01-03T04:43:30.033Z,33.1
2019-01-03T04:44:19.592Z,33
2019-01-03T04:45:10.386Z,33
2019-01-03T05:02:29.066Z,33
2019-01-03T05:03:18.623Z,33
2019-01-03T05:04:08.967Z,33
2019-01-03T05:04:58.711Z,33
2019-01-03T05:05:48.501Z,33
2019-01-03T05:06:38.520Z,33
2019-01-03T05:07:29.410Z,32.9
2019-01-03T05:08:19.291Z,32.9
2019-01-03T05:09:08.706Z,33
2019-01-03T05:09:59.358Z,33
2019-01-03T05:10:49.473Z,32.9
2019-01-03T05:11:39.490Z,32.9
2019-01-03T05:12:29.840Z,33
2019-01-03T05:13:19.812Z,33
2019-01-03T05:14:09.354Z,32.9
2019-01-03T05:14:58.883Z,32.9
2019-01-03T05:15:49.727Z,32.9
2019-01-03T05:16:39.760Z,32.9
2019-01-03T05:17:28.987Z,32.9
2019-01-03T05:18:19.105Z,32.9
2019-01-03T05:19:09.173Z,32.9
2019-01-03T05:19:59.500Z,32.9
2019-01-03T05:20:49.322Z,32.9
2019-01-03T05:21:39.923Z,32.9
2019-01-03T05:22:29.419Z,32.9
2019-01-03T05:23:20.004Z,32.9
2019-01-03T05:24:09.551Z,32.9
2019-01-03T05:25:00.202Z,32.9
2019-01-03T05:25:49.598Z,32.9
2019-01-03T05:26:39.428Z,32.9
2019-01-03T05:27:30.052Z,32.9
2019-01-03T05:28:20.318Z,32.9
2019-01-03T05:29:10.861Z,32.9
2019-01-03T05:30:01.906Z,32.9
2019-01-03T05:30:50.488Z,32.9
2019-01-03T05:31:39.678Z,32.9
2019-01-03T05:32:30.925Z,32.9
2019-01-03T05:33:20.075Z,32.9
2019-01-03T05:34:10.991Z,32.9
2019-01-03T05:35:00.774Z,32.9
2019-01-03T05:35:51.056Z,32.9
2019-01-03T05:36:41.432Z,32.9
2019-01-03T05:37:31.186Z,32.9
2019-01-03T05:38:21.530Z,32.8
2019-01-03T05:39:11.574Z,32.8
2019-01-03T05:40:00.668Z,32.9
2019-01-03T05:40:51.431Z,32.8
2019-01-03T05:41:41.203Z,32.8
2019-01-03T05:42:31.541Z,32.8
2019-01-03T05:43:21.959Z,32.8
2019-01-03T05:44:12.168Z,32.8
2019-01-03T05:45:01.739Z,32.8
2019-01-03T05:45:51.531Z,32.8
2019-01-03T05:46:41.016Z,32.8
2019-01-03T05:47:32.018Z,32.8
2019-01-03T05:48:21.411Z,32.8
2019-01-03T05:49:11.715Z,32.8
2019-01-03T05:50:01.834Z,32.8
2019-01-03T05:50:51.578Z,32.8
2019-01-03T05:51:41.667Z,32.8
2019-01-03T05:52:31.185Z,32.8
2019-01-03T05:53:22.951Z,32.7
2019-01-03T05:54:11.489Z,32.8
2019-01-03T05:55:01.938Z,32.8
2019-01-03T05:55:51.919Z,32.7
2019-01-03T05:56:41.733Z,32.7
2019-01-03T05:57:32.010Z,32.7
2019-01-03T05:58:22.285Z,32.7
2019-01-03T05:59:12.136Z,32.7
2019-01-03T06:00:02.884Z,32.7
2019-01-03T06:00:52.273Z,32.7
2019-01-03T06:01:42.598Z,32.7
2019-01-03T06:02:32.880Z,32.7
2019-01-03T06:03:22.457Z,32.7
2019-01-03T06:04:13.262Z,32.7
2019-01-03T06:05:02.810Z,32.6
2019-01-03T06:05:52.568Z,32.6
2019-01-03T06:06:43.178Z,32.6
2019-01-03T06:07:33.202Z,32.6
2019-01-03T06:08:23.292Z,32.6
2019-01-03T06:09:13.095Z,32.7
2019-01-03T06:10:03.672Z,32.7
2019-01-03T06:10:52.644Z,32.6
2019-01-03T06:11:43.269Z,32.6
2019-01-03T06:12:33.327Z,32.6
2019-01-03T06:13:23.643Z,32.6
2019-01-03T06:14:13.953Z,32.6
2019-01-03T06:15:05.137Z,32.6
2019-01-03T06:15:53.241Z,32.6
2019-01-03T06:16:43.846Z,32.6
2019-01-03T06:17:33.877Z,32.6
2019-01-03T06:18:22.854Z,32.6
2019-01-03T06:19:13.476Z,32.6
2019-01-03T06:20:04.358Z,32.6
2019-01-03T06:20:53.891Z,32.6
2019-01-03T06:21:43.629Z,32.6
2019-01-03T06:22:33.673Z,32.6
2019-01-03T06:23:24.556Z,32.6
2019-01-03T06:24:14.311Z,32.6
2019-01-03T06:25:04.991Z,32.6
2019-01-03T06:25:54.988Z,32.6
2019-01-03T06:26:43.686Z,32.6
2019-01-03T06:27:34.299Z,32.5
2019-01-03T06:28:24.136Z,32.5
2019-01-03T06:29:14.405Z,32.5
2019-01-03T06:30:05.035Z,32.5
2019-01-03T06:30:53.985Z,32.5
2019-01-03T06:31:45.111Z,32.5
2019-01-03T06:32:34.903Z,32.5
2019-01-03T06:33:24.434Z,32.4
2019-01-03T06:34:14.264Z,32.4
2019-01-03T06:35:05.013Z,32.5
2019-01-03T06:35:55.995Z,32.4
2019-01-03T06:36:44.426Z,32.5
2019-01-03T06:37:33.421Z,32.4
2019-01-03T06:38:24.839Z,32.5
2019-01-03T06:39:14.070Z,32.4
2019-01-03T06:40:04.745Z,32.4
2019-01-03T06:40:53.958Z,32.4
2019-01-03T06:41:44.745Z,32.4
2019-01-03T06:42:34.745Z,32.4
2019-01-03T06:43:25.090Z,32.4
2019-01-03T06:44:16.012Z,32.4
2019-01-03T06:45:06.067Z,32.4
2019-01-03T06:45:55.769Z,32.4
2019-01-03T06:46:45.617Z,32.4
2019-01-03T06:47:35.359Z,32.4
2019-01-03T06:48:26.007Z,32.4
2019-01-03T06:49:15.235Z,32.4
2019-01-03T06:50:05.106Z,32.4
2019-01-03T06:50:56.157Z,32.4
2019-01-03T06:51:46.447Z,32.4
2019-01-03T06:52:35.454Z,32.4
2019-01-03T06:53:26.332Z,32.4
2019-01-03T06:54:16.136Z,32.4
2019-01-03T06:55:05.894Z,32.3
2019-01-03T06:55:56.279Z,32.3
2019-01-03T06:56:46.824Z,32.3
2019-01-03T06:57:36.849Z,32.3
2019-01-03T06:58:26.391Z,32.3
2019-01-03T06:59:16.278Z,32.3
2019-01-03T07:00:06.326Z,32.3
2019-01-03T07:00:55.611Z,32.3
2019-01-03T07:01:45.679Z,32.3
2019-01-03T07:02:36.902Z,32.3
2019-01-03T07:03:26.701Z,32.3
2019-01-03T07:04:16.774Z,32.3
2019-01-03T07:05:05.733Z,32.2
2019-01-03T07:05:56.629Z,32.2
2019-01-03T07:06:47.466Z,32.1
2019-01-03T07:07:37.255Z,32.1
2019-01-03T07:08:27.048Z,32.1
2019-01-03T07:09:17.703Z,32.1
2019-01-03T07:10:06.913Z,32.1
2019-01-03T07:10:56.953Z,32
2019-01-03T07:11:46.953Z,32
2019-01-03T07:12:37.049Z,32
2019-01-03T07:13:27.393Z,31.9
2019-01-03T07:14:17.450Z,31.9
2019-01-03T07:15:07.770Z,31.9
2019-01-03T07:15:57.568Z,31.9
2019-01-03T07:16:48.381Z,31.9
2019-01-03T07:17:38.015Z,31.8
2019-01-03T07:18:27.270Z,31.8
2019-01-03T07:19:17.610Z,31.8
2019-01-03T07:20:07.185Z,31.8
2019-01-03T07:20:57.154Z,31.7
2019-01-03T07:21:47.770Z,31.7
2019-01-03T07:22:38.020Z,31.7
2019-01-03T07:23:27.847Z,31.6
2019-01-03T07:24:18.147Z,31.6
2019-01-03T07:25:07.920Z,31.6
2019-01-03T07:25:58.347Z,31.5
2019-01-03T07:26:48.035Z,31.5
2019-01-03T07:27:38.082Z,31.5
2019-01-03T07:28:28.539Z,31.5
2019-01-03T07:29:17.957Z,31.4
2019-01-03T07:30:08.524Z,31.4
2019-01-03T07:30:58.022Z,31.4
2019-01-03T07:31:47.772Z,31.4
2019-01-03T07:32:38.697Z,31.4
2019-01-03T07:33:29.312Z,31.3
2019-01-03T07:34:18.789Z,31.3
2019-01-03T07:35:08.912Z,31.3
2019-01-03T07:35:58.647Z,31.3
2019-01-03T07:36:49.032Z,31.2
2019-01-03T07:37:39.041Z,31.2
2019-01-03T07:38:28.809Z,31.2
2019-01-03T07:39:19.134Z,31.2
2019-01-03T07:40:09.041Z,31.2
2019-01-03T07:40:59.543Z,31.2
2019-01-03T07:41:49.826Z,31.2
2019-01-03T07:42:38.819Z,31.2
2019-01-03T07:43:29.980Z,31.2
2019-01-03T07:44:19.481Z,31.2
2019-01-03T07:45:10.087Z,31.2
2019-01-03T07:45:59.376Z,31.2
2019-01-03T07:46:49.713Z,31.1
2019-01-03T07:47:39.718Z,31.1
2019-01-03T07:48:29.785Z,31.1
2019-01-03T07:49:19.820Z,31.1
2019-01-03T07:50:11.215Z,31.1
2019-01-03T07:50:59.723Z,31.1
2019-01-03T07:51:50.559Z,31.1
2019-01-03T07:52:40.368Z,31.1
2019-01-03T07:53:30.658Z,31.1
2019-01-03T07:54:20.167Z,31.1
2019-01-03T07:55:10.485Z,31
2019-01-03T07:56:00.262Z,31
2019-01-03T07:56:50.054Z,31
2019-01-03T07:57:39.577Z,31
2019-01-03T07:58:29.955Z,31
2019-01-03T07:59:20.770Z,31
2019-01-03T08:00:10.597Z,31
2019-01-03T08:01:00.340Z,30.9
2019-01-03T08:01:50.467Z,30.9
2019-01-03T08:02:40.778Z,30.9
2019-01-03T08:03:30.310Z,30.9
2019-01-03T08:04:20.631Z,30.9
2019-01-03T08:05:10.183Z,30.9
2019-01-03T08:06:00.494Z,30.9
2019-01-03T08:06:49.700Z,30.9
2019-01-03T08:07:41.370Z,30.8
2019-01-03T08:08:31.239Z,30.8
2019-01-03T08:09:19.905Z,30.8
2019-01-03T08:10:10.754Z,30.8
2019-01-03T08:11:00.824Z,30.8
2019-01-03T08:11:50.320Z,30.8
2019-01-03T08:12:41.456Z,30.7
2019-01-03T08:13:31.004Z,30.7
2019-01-03T08:14:21.052Z,30.7
2019-01-03T08:15:11.140Z,30.6
2019-01-03T08:16:01.444Z,30.6
2019-01-03T08:16:51.194Z,30.6
2019-01-03T08:17:41.569Z,30.6
2019-01-03T08:18:31.351Z,30.6
2019-01-03T08:19:20.869Z,30.6
2019-01-03T08:20:12.021Z,30.6
2019-01-03T08:21:01.234Z,30.6
2019-01-03T08:21:51.269Z,30.5
2019-01-03T08:22:42.194Z,30.5
2019-01-03T08:23:31.684Z,30.5
2019-01-03T08:24:22.268Z,30.5
2019-01-03T08:25:12.074Z,30.5
2019-01-03T08:26:01.851Z,30.4
2019-01-03T08:26:50.826Z,30.4
2019-01-03T08:27:43.269Z,30.4
2019-01-03T08:28:32.589Z,30.4
2019-01-03T08:29:22.088Z,30.4
2019-01-03T08:30:12.136Z,30.4
2019-01-03T08:31:02.460Z,30.4
2019-01-03T08:31:52.608Z,30.4
2019-01-03T08:32:43.361Z,30.3
2019-01-03T08:33:32.906Z,30.3
2019-01-03T08:34:22.453Z,30.3
2019-01-03T08:35:13.246Z,30.3
2019-01-03T08:36:02.233Z,30.3
2019-01-03T08:36:52.536Z,30.2
2019-01-03T08:37:42.875Z,30.2
2019-01-03T08:38:33.437Z,30.2
2019-01-03T08:39:23.001Z,30.1
2019-01-03T08:40:13.090Z,30.1
2019-01-03T08:41:03.617Z,30
2019-01-03T08:41:52.835Z,30
2019-01-03T08:42:43.450Z,29.9
2019-01-03T08:43:33.535Z,29.9
2019-01-03T08:44:22.738Z,29.9
2019-01-03T08:45:13.690Z,29.9
2019-01-03T08:46:03.148Z,29.9
2019-01-03T08:46:54.012Z,29.9
2019-01-03T08:47:43.802Z,29.8
2019-01-03T08:48:33.637Z,29.8
2019-01-03T08:49:22.804Z,29.8
2019-01-03T08:50:12.925Z,29.7
2019-01-03T08:51:04.809Z,29.8
2019-01-03T08:51:54.065Z,29.7
2019-01-03T08:52:43.827Z,29.7
2019-01-03T08:53:34.482Z,29.6
2019-01-03T08:54:23.801Z,29.6
2019-01-03T08:55:13.254Z,29.6
2019-01-03T08:56:04.641Z,29.6
2019-01-03T08:56:53.392Z,29.6
2019-01-03T08:57:44.229Z,29.6
2019-01-03T08:58:34.772Z,29.6
2019-01-03T08:59:24.637Z,29.6
2019-01-03T09:00:14.649Z,29.5
2019-01-03T09:01:04.562Z,29.5
2019-01-03T09:16:54.153Z,29.3
2019-01-03T09:17:43.923Z,29.2
2019-01-03T09:18:34.815Z,29.2
2019-01-03T09:19:24.610Z,29.3
2019-01-03T09:20:14.923Z,29.2
2019-01-03T09:21:05.450Z,29.2
2019-01-03T09:21:54.997Z,29.2
2019-01-03T09:22:45.260Z,29.1
2019-01-03T09:23:34.580Z,29.1
2019-01-03T09:24:24.910Z,29.1
2019-01-03T09:25:15.232Z,29.1
2019-01-03T09:26:05.550Z,29.1
2019-01-03T09:26:55.385Z,29.1
2019-01-03T09:27:44.822Z,29.1
2019-01-03T09:28:35.470Z,29.1
2019-01-03T09:29:25.783Z,29.1
2019-01-03T09:30:15.006Z,29.1
2019-01-03T09:31:05.362Z,29.1
2019-01-03T09:31:55.771Z,29
2019-01-03T09:32:45.461Z,29
2019-01-03T09:33:35.236Z,29
2019-01-03T09:34:25.619Z,29
2019-01-03T09:35:15.645Z,29
2019-01-03T09:36:05.271Z,28.9
2019-01-03T09:36:56.278Z,28.9
2019-01-03T09:37:45.860Z,28.9
2019-01-03T09:38:36.178Z,28.9
2019-01-03T09:39:25.956Z,28.9
2019-01-03T09:40:16.265Z,28.9
2019-01-03T09:41:05.793Z,28.9
2019-01-03T09:41:55.861Z,28.9
2019-01-03T09:42:46.523Z,28.8
2019-01-03T09:43:35.688Z,28.8
2019-01-03T09:44:26.287Z,28.8
2019-01-03T09:45:16.680Z,28.8
2019-01-03T09:46:05.855Z,28.8
2019-01-03T09:46:56.432Z,28.8
2019-01-03T09:47:46.510Z,28.8
2019-01-03T09:48:37.126Z,28.8
2019-01-03T09:49:26.676Z,28.8
2019-01-03T09:50:16.424Z,28.7
2019-01-03T09:51:06.467Z,28.7
2019-01-03T09:51:56.260Z,28.7
2019-01-03T09:52:47.159Z,28.7
2019-01-03T09:53:36.647Z,28.7
2019-01-03T09:54:27.259Z,28.7
2019-01-03T09:55:17.036Z,28.6
2019-01-03T09:56:06.767Z,28.7
2019-01-03T09:56:57.112Z,28.6
2019-01-03T09:57:46.889Z,28.6
2019-01-03T09:58:37.762Z,28.6
2019-01-03T09:59:27.561Z,28.6
2019-01-03T10:00:17.898Z,28.6
2019-01-03T10:01:07.994Z,28.6
2019-01-03T10:01:56.941Z,28.6
2019-01-03T10:02:47.516Z,28.6
2019-01-03T10:03:37.841Z,28.6
2019-01-03T10:04:27.681Z,28.6
2019-01-03T10:05:17.712Z,28.6
2019-01-03T10:06:07.784Z,28.6
2019-01-03T10:06:57.794Z,28.6
2019-01-03T10:07:48.471Z,28.5
2019-01-03T10:08:38.501Z,28.5
2019-01-03T10:09:27.468Z,28.5
2019-01-03T10:10:17.491Z,28.5
2019-01-03T10:11:07.841Z,28.5
2019-01-03T10:11:57.906Z,28.4
2019-01-03T10:12:48.222Z,28.4
2019-01-03T10:13:38.881Z,28.4
2019-01-03T10:14:27.823Z,28.4
2019-01-03T10:15:17.585Z,28.4
2019-01-03T10:16:08.175Z,28.4
2019-01-03T10:16:58.208Z,28.4
2019-01-03T10:17:48.610Z,28.3
2019-01-03T10:18:38.353Z,28.3
2019-01-03T10:19:28.706Z,28.3
2019-01-03T10:20:18.177Z,28.3
2019-01-03T10:21:08.235Z,28.2
2019-01-03T10:21:58.590Z,28.1
2019-01-03T10:22:48.347Z,28.1
2019-01-03T10:23:38.671Z,28.1
2019-01-03T10:24:29.023Z,28.1
2019-01-03T10:25:19.385Z,28
2019-01-03T10:26:09.978Z,28
2019-01-03T10:26:59.771Z,27.9
2019-01-03T10:27:49.514Z,27.9
2019-01-03T10:28:39.585Z,27.9
2019-01-03T10:30:19.697Z,27.8
2019-01-03T10:31:09.500Z,27.8
2019-01-03T10:31:58.959Z,27.8
2019-01-03T10:32:49.527Z,27.7
2019-01-03T10:33:38.776Z,27.7
2019-01-03T10:34:30.220Z,27.7
2019-01-03T10:35:20.024Z,27.6
2019-01-03T10:36:10.114Z,27.6
2019-01-03T10:37:00.124Z,27.6
2019-01-03T10:37:49.647Z,27.6
2019-01-03T10:38:40.289Z,27.5
2019-01-03T10:39:30.269Z,27.4
2019-01-03T10:40:20.339Z,27.3
2019-01-03T10:41:10.134Z,27.2
2019-01-03T10:42:00.211Z,27.1
2019-01-03T10:42:49.989Z,27
2019-01-03T10:43:41.129Z,26.9
2019-01-03T10:44:31.226Z,26.8
2019-01-03T10:45:20.147Z,26.6
2019-01-03T10:46:11.069Z,26.6
2019-01-03T10:47:00.252Z,26.4
2019-01-03T10:47:50.356Z,26.4
2019-01-03T10:48:40.904Z,26.3
2019-01-03T10:49:30.719Z,26.1
2019-01-03T10:50:21.096Z,26.1
2019-01-03T10:51:11.101Z,26
2019-01-03T10:52:00.325Z,25.9
2019-01-03T10:52:50.433Z,25.9
2019-01-03T10:53:40.516Z,25.8
2019-01-03T10:54:31.483Z,25.7
2019-01-03T10:55:21.115Z,25.7
2019-01-03T10:56:10.108Z,25.6
2019-01-03T10:57:01.271Z,25.6
2019-01-03T10:57:51.386Z,25.5
2019-01-03T10:58:41.105Z,25.4
2019-01-03T10:59:31.388Z,25.4
2019-01-03T11:00:21.715Z,25.4
2019-01-03T11:01:11.488Z,25.3
2019-01-03T11:02:01.555Z,25.3
2019-01-03T11:02:51.680Z,25.3
2019-01-03T11:03:41.985Z,25.3
2019-01-03T11:04:31.437Z,25.2
2019-01-03T11:05:21.463Z,25.2
2019-01-03T11:06:11.615Z,25.1
2019-01-03T11:07:02.190Z,25.1
2019-01-03T11:07:51.957Z,25.1
2019-01-03T11:08:41.700Z,25
2019-01-03T11:09:32.617Z,25
2019-01-03T11:10:22.695Z,24.9
2019-01-03T11:11:11.617Z,24.9
2019-01-03T11:12:01.961Z,24.9
2019-01-03T11:12:52.350Z,24.9
2019-01-03T11:13:42.352Z,24.8
2019-01-03T11:14:31.644Z,24.8
2019-01-03T11:15:22.002Z,24.8
2019-01-03T11:16:12.337Z,24.8
2019-01-03T11:17:03.144Z,24.7
2019-01-03T11:17:52.347Z,24.7
2019-01-03T11:18:42.144Z,24.7
2019-01-03T11:19:32.764Z,24.6
2019-01-03T11:20:22.909Z,24.6
2019-01-03T11:21:12.884Z,24.6
2019-01-03T11:22:02.930Z,24.6
2019-01-03T11:22:52.990Z,24.6
2019-01-03T11:23:43.006Z,24.6
2019-01-03T11:24:33.099Z,24.5
2019-01-03T11:25:23.398Z,24.5
2019-01-03T11:26:13.209Z,24.5
2019-01-03T11:27:03.263Z,24.5
2019-01-03T11:27:53.314Z,24.5
2019-01-03T11:28:43.084Z,24.4
2019-01-03T11:29:33.161Z,24.4
2019-01-03T11:30:23.541Z,24.4
2019-01-03T11:31:13.868Z,24.4
2019-01-03T11:32:03.040Z,24.4
2019-01-03T11:32:53.396Z,24.4
2019-01-03T11:33:43.158Z,24.4
2019-01-03T11:34:33.763Z,24.4
2019-01-03T11:35:24.379Z,24.3
2019-01-03T11:36:14.435Z,24.3
2019-01-03T11:37:03.683Z,24.3
2019-01-03T11:37:54.051Z,24.3
2019-01-03T11:38:44.388Z,24.3
2019-01-03T11:39:34.173Z,24.3
2019-01-03T11:40:24.752Z,24.3
2019-01-03T11:41:14.270Z,24.3
2019-01-03T11:42:04.303Z,24.3
2019-01-03T11:42:54.628Z,24.2
2019-01-03T11:43:44.648Z,24.2
2019-01-03T11:44:35.038Z,24.1
2019-01-03T11:45:23.681Z,24.1
2019-01-03T11:46:14.590Z,24
2019-01-03T11:47:04.630Z,24
2019-01-03T11:47:54.430Z,23.9
2019-01-03T11:48:44.745Z,23.9
2019-01-03T11:49:34.509Z,23.9
2019-01-03T11:50:25.137Z,23.8
2019-01-03T11:51:15.706Z,23.8
2019-01-03T11:52:04.694Z,23.8
2019-01-03T11:52:55.037Z,23.7
2019-01-03T11:53:45.738Z,23.7
2019-01-03T11:54:34.634Z,23.6
2019-01-03T11:55:25.512Z,23.6
2019-01-03T11:56:15.607Z,23.6
2019-01-03T11:57:04.766Z,23.5
2019-01-03T11:57:55.682Z,23.5
2019-01-03T11:58:45.483Z,23.4
2019-01-03T11:59:34.736Z,23.4
2019-01-03T12:00:25.269Z,23.3
2019-01-03T12:01:15.590Z,23.3
2019-01-03T12:02:05.386Z,23.2
2019-01-03T12:02:55.731Z,23.1
2019-01-03T12:03:46.051Z,23
2019-01-03T12:04:35.543Z,22.9
2019-01-03T12:05:26.169Z,22.9
2019-01-03T12:06:15.779Z,22.8
2019-01-03T12:07:06.869Z,22.7
2019-01-03T12:07:56.063Z,22.6
2019-01-03T12:08:46.129Z,22.5
2019-01-03T12:09:36.488Z,22.4
2019-01-03T12:10:26.516Z,22.3
2019-01-03T12:11:16.813Z,22.3
2019-01-03T12:12:06.906Z,22.2
2019-01-03T12:12:56.176Z,22.1
2019-01-03T12:13:46.270Z,22.1
2019-01-03T12:14:36.053Z,22
2019-01-03T12:15:25.518Z,21.9
2019-01-03T12:16:15.945Z,21.8
2019-01-03T12:17:06.190Z,21.8
2019-01-03T12:17:56.271Z,21.8
2019-01-03T12:18:46.033Z,21.6
2019-01-03T12:19:36.664Z,21.6
2019-01-03T12:20:26.214Z,21.6
2019-01-03T12:21:16.548Z,21.5
2019-01-03T12:22:07.133Z,21.5
2019-01-03T12:22:56.595Z,21.4
2019-01-03T12:23:46.666Z,21.4
2019-01-03T12:24:37.030Z,21.3
2019-01-03T12:25:26.868Z,21.3
2019-01-03T12:26:17.110Z,21.3
2019-01-03T12:27:07.244Z,21.3
2019-01-03T12:27:57.013Z,21.2
2019-01-03T12:28:47.005Z,21.2
2019-01-03T12:30:27.742Z,21.1
2019-01-03T12:31:16.614Z,21
2019-01-03T12:32:06.960Z,21
2019-01-03T12:32:57.282Z,20.9
2019-01-03T12:33:47.600Z,20.9
2019-01-03T12:34:37.397Z,20.9
2019-01-03T12:35:27.509Z,20.9
2019-01-03T12:36:17.510Z,20.8